Sweeney Granite Mountains, California Weather observations

Data are for 10 minute period ending at time listed.
 Day   Time   Solar   Ave.   Ave.  Ave.  Vector  Max.   Baro.   Total    
  of    of     Rad.   Air    Rel.  Wind   Wind   Wind  Press.  Precip.   
Year   Day            Temp.  Hum.  Speed  Dir.   Gust                    
2014   (PST)  Kw/m2    F      %     mph   deg.    mph    mb.     in.     
-------------------------------------------------------------------------
 262    1:10   0.00   68.2    48   12.3   302    15.9   865.8    0.00 
 262    1:20   0.00   68.0    47   11.5   303    15.4   865.8    0.00 
 262    1:30   0.00   68.1    47   12.8   305    16.6   865.8    0.00 
 262    1:40   0.00   68.1    47   13.1   306    18.0   865.8    0.00 
 262    1:50   0.00   68.0    47   12.1   306    17.5   865.8    0.00 
 262    2:00   0.00   67.7    48   10.6   306    13.7   865.8    0.00 
 262    2:10   0.00   67.6    48   10.2   304    13.4   865.8    0.00 
 262    2:20   0.00   67.6    48   12.2   303    16.0   865.8    0.00 
 262    2:30   0.00   67.5    48   11.8   307    16.7   865.7    0.00 
 262    2:40   0.00   67.8    46   11.6   308    16.3   865.6    0.00 
 262    2:50   0.00   67.9    46   13.3   312    17.5   865.7    0.00 
 262    3:00   0.00   67.6    46   13.7   311    19.9   865.6    0.00 
 262    3:10   0.00   67.5    47   13.3   312    18.9   865.7    0.00 
 262    3:20   0.00   67.6    46   14.7   318    24.7   865.7    0.00 
 262    3:30   0.00   67.2    47   15.1   315    22.0   865.7    0.00 
 262    3:40   0.00   67.3    46   13.0   311    17.7   865.8    0.00 
 262    3:50   0.00   67.5    45   11.4   310    15.8   865.7    0.00 
 262    4:00   0.00   67.3    44   11.0   308    15.3   865.8    0.00 
 262    4:10   0.00   68.0    41    9.9   311    13.8   865.8    0.00 
 262    4:20   0.00   67.2    45    9.9   301    13.1   865.8    0.00 
 262    4:30   0.00   67.0    45   10.9   308    16.9   865.9    0.00 
 262    4:40   0.00   67.4    44   11.7   317    17.6   865.9    0.00 
 262    4:50   0.00   67.4    44   11.1   316    17.5   866.0    0.00 
 262    5:00   0.00   66.9    46   15.9   315    22.4   866.0    0.00 
 262    5:10   0.00   66.8    45   15.1   313    20.4   866.1    0.00 
 262    5:20   0.00   66.6    44   14.5   311    21.0   866.1    0.00 
 262    5:30   0.00   66.6    45   14.5   311    20.4   866.2    0.00 
 262    5:40   0.00   66.8    44   13.8   312    19.1   866.3    0.00 
 262    5:50   0.01   66.9    45   11.7   317    18.1   866.5    0.00 
 262    6:00   0.04   67.1    46   10.8   308    14.3   866.5    0.00 
 262    6:10   0.07   67.6    45   12.2   301    16.6   866.7    0.00 
 262    6:20   0.10   68.0    45   12.3   302    16.5   866.9    0.00 
 262    6:30   0.13   68.3    45   10.8   306    15.7   867.1    0.00 
 262    6:40   0.17   68.8    44   10.8   301    15.2   867.2    0.00 
 262    6:50   0.20   68.5    46   12.0   300    15.2   867.4    0.00 
 262    7:00   0.24   68.8    46   12.0   300    17.5   867.4    0.00 
 262    7:10   0.28   69.0    46   11.0   303    16.1   867.5    0.00 
 262    7:20   0.31   69.8    44   11.0   304    15.8   867.7    0.00 
 262    7:30   0.35   69.6    45   12.7   307    17.1   867.9    0.00 
 262    7:40   0.39   69.6    45   12.8   306    17.2   868.0    0.00 
 262    7:50   0.42   70.2    43   11.8   306    17.2   868.1    0.00 
 262    8:00   0.46   71.5    40    9.9   300    16.1   868.1    0.00 
 262    8:10   0.49   72.5    38   10.2   306    14.0   868.2    0.00 
 262    8:20   0.53   72.5    39    9.9   303    13.3   868.4    0.00 
 262    8:30   0.56   73.8    35    7.3   303    11.2   868.5    0.00 
 262    8:40   0.59   75.2    33    4.3   306     8.3   868.6    0.00 
 262    8:50   0.62   76.5    30    3.3   290     8.4   868.7    0.00 
 262    9:00   0.65   76.7    30    5.3   300     8.6   868.8    0.00 
 262    9:10   0.67   76.6    30    4.2   307     8.7   868.8    0.00 
 262    9:20   0.70   77.2    30    3.8   316     7.2   868.9    0.00 
 262    9:30   0.73   77.9    28    5.2    86     9.5   868.9    0.00 
 262    9:40   0.75   77.8    28    4.9   105     8.5   869.0    0.00 
 262    9:50   0.77   77.6    28    5.9   107     9.2   869.1    0.00 
 262   10:00   0.79   78.3    27    4.9   117    11.3   869.2    0.00 
 262   10:10   0.81   78.3    28    4.8   145     8.6   869.1    0.00 
 262   10:20   0.83   79.0    26    5.2   103    11.2   869.1    0.00 
 262   10:30   0.84   79.0    27    6.1    98    10.4   869.1    0.00 
 262   10:40   0.86   79.0    27    7.5   118    12.6   869.0    0.00 
 262   10:50   0.87   79.1    27    5.3   122    12.3   869.0    0.00 
 262   11:00   0.88   78.7    28    5.6   135    12.3   869.0    0.00 
 262   11:10   0.89   79.2    27    5.9   127    11.8   869.0    0.00 
 262   11:20   0.89   79.1    26    7.8   126    14.0   869.0    0.00 
 262   11:30   0.89   79.3    26    6.3   117    17.8   869.0    0.00 
 262   11:40   0.90   78.9    25    6.5   132    12.9   869.0    0.00 
 262   11:50   0.90   80.2    25    6.5   120    12.4   868.9    0.00 
 262   12:00   0.90   79.7    24    6.8   102    13.1   868.8    0.00 
 262   12:10   0.89   80.0    25    8.5   116    13.2   868.8    0.00 
 262   12:20   0.89   79.5    24    7.4   119    14.8   868.7    0.00 
 262   12:30   0.88   79.9    23    6.3   125    13.1   868.6    0.00 
 262   12:40   0.85   80.6    23    9.5   120    17.2   868.5    0.00 
 262   12:50   0.86   80.8    22    6.8   109    13.8   868.5    0.00 
 262   13:00   0.85   80.3    22    5.3    97    11.4   868.5    0.00 
 262   13:10   0.84   81.4    22    4.4   179    11.7   868.4    0.00 
 262   13:20   0.82   81.5    20    6.1   114    14.5   868.4    0.00 
 262   13:30   0.79   82.6    21    3.6   201     9.8   868.4    0.00 
 262   13:40   0.77   81.0    22    7.1   113    11.5   868.3    0.00 
 262   13:50   0.75   80.6    23    8.1   119    16.0   868.2    0.00 
 262   14:00   0.73   81.2    22    6.5   115    16.5   868.1    0.00 
 262   14:10   0.70   80.3    22    7.3   123    15.3   868.0    0.00 
 262   14:20   0.68   80.7    19    6.1   110    12.4   868.0    0.00 
 262   14:30   0.65   80.5    21    6.9   125    13.2   868.0    0.00 
 262   14:40   0.62   80.5    20    5.3    93     9.6   868.0    0.00 
 262   14:50   0.59   80.8    18    7.7   119    13.6   867.9    0.00 
 262   15:00   0.56   80.7    20    4.7   175    12.0   867.9    0.00 
 262   15:10   0.53   82.1    20    5.0   140    11.9   867.9    0.00 
 262   15:20   0.50   80.9    19    5.5   126    11.9   867.8    0.00 
 262   15:30   0.47   80.7    20    6.8   125    14.2   867.8    0.00 
 262   15:40   0.43   80.0    21    7.1   130    13.4   867.8    0.00 
 262   15:50   0.40   80.7    19    6.3   128    13.3   867.8    0.00 
 262   16:00   0.36   80.5    19    8.0   116    14.6   867.8    0.00 
 262   16:10   0.32   80.6    19    6.4   112    14.2   867.8    0.00 
 262   16:20   0.29   79.6    18    5.4   110    11.6   867.9    0.00 
 262   16:30   0.25   79.8    18    7.1   125    11.8   867.9    0.00 
 262   16:40   0.21   78.9    18    7.0   112     9.9   867.9    0.00 
 262   16:50   0.18   78.7    17    6.6   129    10.4   867.9    0.00 
 262   17:00   0.08   77.7    19    6.7   127    10.9   867.9    0.00 
 262   17:10   0.01   76.2    22    6.0   125     9.8   867.8    0.00 
 262   17:20   0.01   75.3    22    5.4   116     7.5   867.9    0.00 
 262   17:30   0.00   74.1    23    4.0   109     5.6   867.8    0.00 
 262   17:40   0.00   73.3    24    4.2   105     5.8   867.7    0.00 
 262   17:50   0.00   72.6    25    3.6    98     4.7   867.7    0.00 
 262   18:00   0.00   72.2    26    3.9    93     4.8   867.8    0.00 
 262   18:10   0.00   72.2    26    3.5    98     4.5   867.8    0.00 
 262   18:20   0.00   71.9    27    3.5    98     4.8   867.7    0.00 
 262   18:30   0.00   71.7    28    3.2    95     4.4   867.7    0.00 
 262   18:40   0.00   71.6    28    3.2    97     4.5   867.7    0.00 
 262   18:50   0.00   70.6    29    2.7   103     3.9   867.7    0.00 
 262   19:00   0.00   69.9    29    1.1   104     3.1   867.7    0.00 
 262   19:10   0.00   69.3    30    1.2   272     2.7   867.7    0.00 
 262   19:20   0.00   69.3    30    0.6   268     2.1   867.7    0.00 
 262   19:30   0.00   68.1    31    0.4   284     1.7   867.9    0.00 
 262   19:40   0.00   69.0    30    1.5   283     2.2   868.0    0.00 
 262   19:50   0.00   68.4    31    2.2   287     2.7   868.0    0.00 
 262   20:00   0.00   67.6    32    1.8   289     2.3   868.0    0.00 
 262   20:10   0.00   67.5    32    0.7   278     1.2   868.1    0.00 
 262   20:20   0.00   65.7    34    0.1   300     1.5   868.2    0.00 
 262   20:30   0.00   66.9    33    0.3   116     1.9   868.3    0.00 
 262   20:40   0.00   66.8    33    0.0   133     0.7   868.4    0.00 
 262   20:50   0.00   65.5    35    0.2   260     1.2   868.4    0.00 
 262   21:00   0.00   67.2    32    0.3   274     1.4   868.4    0.00 
 262   21:10   0.00   67.7    32    0.2   269     1.2   868.4    0.00 
 262   21:20   0.00   65.9    34    0.2   270     1.2   868.4    0.00 
 262   21:30   0.00   66.6    34    0.0   284     0.5   868.5    0.00 
 262   21:40   0.00   65.5    35    0.8   287     1.8   868.4    0.00 
 262   21:50   0.00   66.1    34    0.7   288     1.6   868.4    0.00 
 262   22:00   0.00   66.0    35    0.6   280     1.7   868.5    0.00 
 262   22:10   0.00   65.0    37    0.6   291     1.8   868.5    0.00 
 262   22:20   0.00   66.1    35    0.8   279     1.8   868.4    0.00 
 262   22:30   0.00   65.7    36    0.1   160     0.9   868.4    0.00 
 262   22:40   0.00   65.6    36    0.2   148     1.0   868.3    0.00 
 262   22:50   0.00   64.8    38    0.1   276     1.3   868.4    0.00 
 262   23:00   0.00   66.4    35    0.0   237     0.7   868.4    0.00 
 262   23:10   0.00   66.1    36    0.1   230     1.1   868.4    0.00 
 262   23:20   0.00   65.4    37    0.5   254     1.3   868.5    0.00 
 262   23:30   0.00   66.6    35    0.3   249     1.4   868.5    0.00 
 262   23:40   0.00   67.0    34    0.8   272     2.0   868.5    0.00 
 262   23:50   0.00   66.1    36    0.3   148     2.3   868.5    0.00 
 263    0:00   0.00   65.8    36    1.2   117     2.5   868.6    0.00 
 263    0:10   0.00   66.6    35    2.3   113     3.1   868.5    0.00 
 263    0:20   0.00   67.0    34    2.1   119     2.7   868.5    0.00 
 263    0:30   0.00   66.9    35    1.7   114     2.4   868.6    0.00 
 263    0:40   0.00   66.2    36    0.2   129     1.3   868.5    0.00 
 263    0:50   0.00   64.8    39    0.0     0     0.0   868.5    0.00 
 263    1:00   0.00   64.4    40    1.1   277     2.9   868.5    0.00 

Return to Sweeney Granite Mountains graphs page.


Western Regional Climate Center,wrcc@dri.edu